TimeCDT,TemperatureF,Dew PointF,Humidity,Sea Level PressureIn,VisibilityMPH,Wind Direction,Wind SpeedMPH,Gust SpeedMPH,PrecipitationIn,Events,Conditions,WindDirDegrees,DateUTC
12:53 AM,41.0,27.0,57,29.83,10.0,WNW,8.1,-,N/A,,Clear,300,2012-11-01 05:53:00
1:53 AM,37.9,26.1,62,29.84,10.0,West,8.1,-,N/A,,Clear,280,2012-11-01 06:53:00
3:53 AM,32.0,23.0,69,29.84,10.0,West,6.9,-,N/A,,Clear,280,2012-11-01 08:53:00
5:53 AM,30.9,23.0,72,29.85,10.0,West,6.9,-,N/A,,Overcast,270,2012-11-01 10:53:00
7:53 AM,34.0,19.9,56,29.86,10.0,West,10.4,-,N/A,,Overcast,280,2012-11-01 12:53:00
8:53 AM,37.0,21.0,52,29.88,10.0,West,10.4,-,N/A,,Partly Cloudy,280,2012-11-01 13:53:00
9:53 AM,42.1,21.0,43,29.88,10.0,WNW,9.2,-,N/A,,Mostly Cloudy,300,2012-11-01 14:53:00
10:53 AM,46.0,21.9,39,29.89,10.0,West,10.4,-,N/A,,Overcast,280,2012-11-01 15:53:00
11:53 AM,48.9,18.0,29,29.88,10.0,NW,10.4,18.4,N/A,,Mostly Cloudy,320,2012-11-01 16:53:00
12:53 PM,50.0,12.0,22,29.86,10.0,NW,9.2,18.4,N/A,,Mostly Cloudy,320,2012-11-01 17:53:00
1:53 PM,52.0,26.1,37,29.84,10.0,NNW,11.5,18.4,N/A,,Partly Cloudy,340,2012-11-01 18:53:00
2:53 PM,54.0,25.0,33,29.82,10.0,West,6.9,-,N/A,,Mostly Cloudy,280,2012-11-01 19:53:00
3:53 PM,52.0,28.0,40,29.83,10.0,West,13.8,-,N/A,,Overcast,280,2012-11-01 20:53:00
4:53 PM,48.9,30.0,48,29.84,10.0,West,9.2,-,N/A,,Mostly Cloudy,280,2012-11-01 21:53:00
5:53 PM,45.0,30.0,56,29.85,10.0,West,6.9,-,N/A,,Mostly Cloudy,280,2012-11-01 22:53:00
6:53 PM,46.9,28.9,50,29.86,10.0,Calm,Calm,-,N/A,,Mostly Cloudy,0,2012-11-01 23:53:00
7:53 PM,42.1,30.0,62,29.86,10.0,Calm,Calm,-,N/A,,Mostly Cloudy,0,2012-11-02 00:53:00
8:53 PM,42.1,30.0,62,29.88,10.0,NNW,3.5,-,N/A,,Mostly Cloudy,340,2012-11-02 01:53:00
9:53 PM,43.0,32.0,65,29.88,10.0,NNW,3.5,-,N/A,,Mostly Cloudy,340,2012-11-02 02:53:00
10:53 PM,43.0,34.0,71,29.88,10.0,North,4.6,-,N/A,,Mostly Cloudy,360,2012-11-02 03:53:00
11:53 PM,43.0,33.1,68,29.89,10.0,NNW,4.6,-,N/A,,Overcast,330,2012-11-02 04:53:00